Minneapolis, Minnesota
Traffic Map
Current Weather Conditions
Minneapolis, Minnesota
Few Clouds
Few Clouds
18°
Feels Like: 18°
Wind Chill: 18° Ceiling: Unl
Heat Index: 18° Visibility: 10mi
Dew Point: 14° Wind: 6mph
Humidity: 75% Direction: 170° (S)
Pressure: 29.88in Gusts: 0mph
Raw Report DataKMSP 030653Z 17005KT 10SM FEW300 18/14 A2988 RMK AO2 SLP114 T01830139
Traffic Incident Summary
Active as of:
Severity:
Category:
InformationThere was an issue retrieving the traffic information for this location. Please try a different location or try again shortly.
Advertisements
Track Severe Weather on mobile